Terminal Aerodrome Forecast
Issued by NWS Charleston, WV

Current Version | Previous Version | Graphics & Text | Print | Product List | Glossary On
Versions: 1 2 3 4 5 6 7 8 9 10 11 12 13 14 15 16 17 18 19 20 21
231
FTUS41 KRLX 082116 AAA
TAFBKW
TAF AMD
KBKW 082116Z 0821/0918 22010G18KT P6SM BKN050
      TEMPO 0821/0823 2SM -SNGR OVC010
     FM082300 26007KT P6SM BKN025
     FM090500 25008KT 4SM -SHSN BR OVC008
     FM090700 26009KT 1SM -SHSN BR OVC004
     FM091600 28010KT 2SM -SHSN BR OVC007=

USA.gov is the U.S. government's official web portal to all federal, state and local government web resources and services.